Duke Field,(Eglin Af Aux Nr 3) Airport
KEGI : now visible

Airfield :











YOU CAN JOIN US ON...

 
LOGIN :

Register | Disclaimer

   EN    FR    IT 

 









Legend :    VFR   Marginal VFR   IFR   Intensive IFR   Very Intensive IFR
Visi :
Ceiling :
>= 8 km
>= 3000ft
5 to 8 km
1000 to 3000 ft
1500m to 5 km
500 to 1000 ft
800 to 1500m
200 to 500 ft
< 800m
< 200 ft
Symbols :   Thunderstorms  Fog  Heavy snow  Heavy precipitations  Wind > 20 kt






- Airport Elevation : 191 ft


KEGI - Duke Field,(Eglin Af Aux Nr 3)

CURRENT METAR :
  • 091434Z AUTO 02005KT 10SM BKN013 25/23 A2999 RMK AO2 SLP155 $

EXPIRED METARs :
  • 091418Z AUTO 02005KT 10SM SCT009 BKN190 25/23 A2999 RMK AO2 SLP155 $
  • 091400Z AUTO 02008KT 10SM BKN008 BKN013 25/23 A2998 RMK AO2 CIG 008V013 SLP151 $
  • 091356Z AUTO 02008KT 10SM SCT009 BKN013 25/24 A2998 RMK AO2 SLP151 T02510235 $
  • 091256Z AUTO 00000KT 7SM FEW180 24/23 A2997 RMK AO2 SLP148 T02400226 $
  • 091156Z AUTO 00000KT 8SM FEW024 23/22 A2996 RMK AO2 RAB02E12 SLP145 P0000 60018 70018 T02260217 10233 20223 52012 $

TAF AMD TAF KEGI
Valid from the 09 at 14:00 until the 10 at 07:00 UTC


091410Z 0914/1007 02012KT 6000 -SHRA VCTS SCT008 BKN015CB QNH2994INS
TEMPO 0916/0921 34015G25KT 4800 -TSRA BKN010CB
BECMG 0922/0923 27009KT 9999 NSW SCT030 BKN150 QNH2989INS
BECMG 1002/1003 VRB06KT 9999 SCT050 SCT150 QNH2992INS TX30/0921Z TN25/0914Z
KZJX FIR / North America



MET'MAP, your aeronautical weather chart ! - Copyright ORBIFLY December 2007 - Disclaimer

ORBIFLY MET'MAP TEAM :

Programming & Development : Alexandra Zaïnal
Concept & original design : Baudouin d'Aumeries
Assistance for programming : Marc-Olivier Méhu
Technical & hardware support : Manuel Goepfert

Contact : metmap@orbifly.com




SOURCES & CREDITS :

   NOAA       Earth
Advisory